createdAt,value
2022-09-11T00:01:36.133Z,22.4
2022-09-11T00:21:36.132Z,22.4
2022-09-11T00:41:36.091Z,22.4
2022-09-11T01:01:36.058Z,22.4
2022-09-11T01:21:36.044Z,22.4
2022-09-11T01:41:35.999Z,22.4
2022-09-11T02:01:35.976Z,22.4
2022-09-11T02:21:35.958Z,22.3
2022-09-11T02:41:35.931Z,22.3
2022-09-11T03:01:35.933Z,22.3
2022-09-11T03:21:35.878Z,22.3
2022-09-11T03:41:35.850Z,22.3
2022-09-11T04:01:35.851Z,22.3
2022-09-11T04:21:35.862Z,22.3
2022-09-11T04:41:35.787Z,22.3
2022-09-11T05:01:35.756Z,22.3
2022-09-11T05:21:35.713Z,22.2
2022-09-11T05:41:35.726Z,22.2
2022-09-11T06:01:35.671Z,22.3
2022-09-11T06:21:35.706Z,22.3
2022-09-11T06:41:35.640Z,22.3
2022-09-11T07:01:35.624Z,22.3
2022-09-11T07:21:35.575Z,22.3
2022-09-11T07:41:35.529Z,22.6
2022-09-11T08:01:35.558Z,22.6
2022-09-11T08:21:35.616Z,22.5
2022-09-11T08:41:35.481Z,22.4
2022-09-11T09:01:35.462Z,22.4
2022-09-11T09:21:35.449Z,22.4
2022-09-11T09:41:35.415Z,22.4
2022-09-11T10:01:35.391Z,22.4
2022-09-11T10:21:35.345Z,22.4
2022-09-11T10:41:35.327Z,22.4
2022-09-11T11:01:35.350Z,22.4
2022-09-11T11:21:35.276Z,22.4
2022-09-11T11:41:35.218Z,22.4
2022-09-11T12:01:35.211Z,22.4
2022-09-11T12:21:35.193Z,22.3
2022-09-11T12:41:35.154Z,22.4
2022-09-11T13:01:35.147Z,22.4
2022-09-11T13:21:35.099Z,22.6
2022-09-11T13:41:35.143Z,22.8
2022-09-11T14:01:35.069Z,23.0
2022-09-11T14:21:35.036Z,23.2
2022-09-11T14:41:35.000Z,23.1
2022-09-11T15:01:35.008Z,23.0
2022-09-11T15:21:34.948Z,22.9
2022-09-11T15:41:34.946Z,22.8
2022-09-11T16:01:35.027Z,22.8
2022-09-11T16:21:34.908Z,22.7
2022-09-11T16:41:34.858Z,22.7
2022-09-11T17:01:34.841Z,22.8
2022-09-11T17:21:34.786Z,22.9
2022-09-11T17:41:34.763Z,22.8
2022-09-11T18:01:34.786Z,22.7
2022-09-11T18:21:34.801Z,22.7
2022-09-11T18:41:34.712Z,22.6
2022-09-11T19:01:34.679Z,22.6
2022-09-11T19:21:34.666Z,22.6
2022-09-11T19:41:34.634Z,22.5
2022-09-11T20:01:34.607Z,22.5
2022-09-11T20:21:34.592Z,22.5
2022-09-11T20:41:34.572Z,22.5
2022-09-11T21:01:34.495Z,22.4
2022-09-11T21:21:34.517Z,22.4
2022-09-11T21:41:34.501Z,22.4
2022-09-11T22:01:34.506Z,22.4
2022-09-11T22:21:34.531Z,22.4
2022-09-11T22:41:34.418Z,22.3
2022-09-11T23:01:34.389Z,22.3
2022-09-11T23:21:34.337Z,22.3
2022-09-11T23:41:34.330Z,22.3
